createdAt,value
2023-01-17T19:47:13.068Z,21.93
2023-01-17T19:49:42.481Z,21.93
2023-01-17T19:52:10.435Z,21.84
2023-01-17T19:54:37.783Z,21.92
2023-01-17T19:57:05.115Z,21.89
2023-01-17T19:59:32.581Z,21.90
2023-01-17T20:02:01.236Z,21.95
2023-01-17T20:04:28.918Z,21.96
2023-01-17T20:06:56.263Z,21.96
2023-01-17T20:09:25.100Z,21.97
2023-01-17T20:11:52.587Z,21.90
2023-01-17T20:14:20.153Z,21.92
2023-01-17T20:16:49.592Z,22.00
2023-01-17T20:19:17.123Z,21.99
2023-01-17T20:21:44.455Z,22.02
2023-01-17T20:24:13.581Z,21.97
2023-01-17T20:26:41.402Z,22.00
2023-01-17T20:29:13.593Z,21.96
2023-01-17T20:31:42.743Z,21.92
2023-01-17T20:34:13.571Z,21.98
2023-01-17T20:36:42.065Z,21.99
2023-01-17T20:39:12.749Z,21.97
2023-01-17T20:41:42.631Z,22.02
2023-01-17T20:44:12.880Z,21.98
2023-01-17T20:46:41.342Z,21.92
2023-01-17T20:49:14.759Z,22.00
2023-01-17T20:51:44.284Z,21.99
2023-01-17T20:54:14.990Z,22.00
2023-01-17T20:56:42.899Z,21.98
2023-01-17T20:59:16.430Z,21.99
2023-01-17T21:01:44.456Z,21.96
2023-01-17T21:04:12.941Z,21.98
2023-01-17T21:06:41.539Z,21.98
2023-01-17T21:09:13.049Z,21.98
2023-01-17T21:11:40.460Z,21.97
2023-01-17T21:14:08.257Z,21.97
2023-01-17T21:16:36.052Z,21.87
2023-01-17T21:19:03.857Z,21.94
2023-01-17T21:21:32.363Z,21.99
2023-01-17T21:23:59.987Z,22.00
2023-01-17T21:26:28.799Z,22.00
2023-01-17T21:28:58.121Z,22.01
2023-01-17T21:31:31.114Z,22.00
2023-01-17T21:34:01.088Z,22.01
2023-01-17T21:36:32.625Z,21.99
2023-01-17T21:39:04.789Z,22.02
2023-01-17T21:41:35.171Z,22.01
2023-01-17T21:44:07.932Z,22.00
2023-01-17T21:46:39.383Z,22.01
2023-01-17T21:49:10.629Z,21.99
2023-01-17T21:51:54.245Z,21.95
2023-01-17T21:54:45.047Z,22.01
2023-01-17T21:57:32.666Z,21.99
2023-01-17T22:00:00.041Z,21.96
2023-01-17T22:02:27.473Z,21.90
2023-01-17T22:04:56.223Z,21.99
2023-01-17T22:07:26.993Z,21.91
2023-01-17T22:09:54.821Z,21.99
2023-01-17T22:12:22.791Z,22.02
2023-01-17T22:14:50.314Z,21.99
2023-01-17T22:17:17.673Z,21.98
2023-01-17T22:19:46.059Z,21.97
2023-01-17T22:22:13.796Z,21.99
2023-01-17T22:24:41.344Z,21.97
2023-01-17T22:27:09.996Z,21.98
2023-01-17T22:29:37.744Z,21.99
2023-01-17T22:32:05.219Z,21.94
2023-01-17T22:34:32.585Z,21.98
2023-01-17T22:37:00.562Z,21.99
2023-01-17T22:39:27.927Z,21.98
2023-01-17T22:41:55.420Z,21.98
2023-01-17T22:44:22.785Z,21.90
2023-01-17T22:46:50.187Z,22.03
2023-01-17T22:49:18.532Z,21.99
2023-01-17T22:51:45.920Z,22.11
2023-01-17T22:54:13.299Z,22.10
2023-01-17T22:56:40.708Z,22.11
2023-01-17T22:59:11.579Z,22.09
2023-01-17T23:01:42.727Z,22.15
2023-01-17T23:04:13.894Z,22.16
2023-01-17T23:06:41.958Z,22.15
2023-01-17T23:09:15.204Z,22.13
2023-01-17T23:11:44.094Z,22.15
2023-01-17T23:14:18.680Z,22.15
2023-01-17T23:17:10.553Z,22.06
2023-01-17T23:19:40.415Z,22.13
2023-01-17T23:22:16.799Z,22.10
2023-01-17T23:24:50.440Z,22.12
2023-01-17T23:27:41.025Z,22.12
2023-01-17T23:30:27.980Z,22.10
2023-01-17T23:33:00.475Z,22.05
2023-01-17T23:35:31.518Z,22.04
2023-01-17T23:38:18.404Z,22.10
2023-01-17T23:41:04.810Z,22.12
2023-01-17T23:43:33.285Z,22.12
2023-01-17T23:46:01.425Z,22.13
2023-01-17T23:48:28.843Z,22.12
2023-01-17T23:51:09.508Z,22.04
2023-01-17T23:53:38.956Z,22.07
2023-01-17T23:56:26.674Z,22.13
2023-01-17T23:58:54.068Z,22.13
